Etusivu
METAR-TAF:

METAR-TAF

Lentoasemat :

Palacios Municipal Airport

Palacios, Texas, Yhdysvallat

Leveyspiiri: 28-43-39N, Pituuspiiri: 096-15-03W, korkeus merenpinnasta: 5 m

Tämänhetkinen sää

Tämä raportti tehtiin 29 minuuttia sitten, kello 21.53 UTC
Tuuli 11 kn etelästä
Lämpötila 32°C
Kosteus 71%
Ilmanpaine 1014 hPa
Näkyvyys: 16.1 km
selkeää

METAR: KPSX 172153Z AUTO 17011KT 10SM CLR 32/26 A2994 RMK AO2 LTG DSNT W-NE SLP138 T03170256

Aika: 17:22 (22:22 UTC)


TAF: puuttuu

Säähavainnot ja -ennusteet yli 4000 lentoasemalta (METAR- ja TAF-raportit).

Käytössä olevat sääasemat on merkitty karttaan keltaisilla ja punaisilla pisteillä.

Aseta hiiri pisteen päälle nähdäksesi sääaseman nimen.

Klikkaa sitten nähdäksesi säähavainnot ja -ennusteet.

Kartan vaihtaminen: klikkaa mustalla rastilla varustettuja vihreitä pisteitä, niin voit zoomata sisään; viivalla varustettua vihreää pistettä, niin voit zoomata ulos tai vihreitä nuolia, niin pääset viereisille kartoille.


METAR-TAF: